createdAt,value
2019-03-11T05:00:43.807Z,1
2019-03-11T05:04:11.717Z,1
2019-03-11T05:07:39.621Z,1
2019-03-11T05:11:07.510Z,2
2019-03-11T05:14:35.405Z,4
2019-03-11T05:18:03.948Z,7
2019-03-11T05:21:31.843Z,9
2019-03-11T05:24:59.741Z,27
2019-03-11T05:28:27.652Z,27
2019-03-11T05:31:55.559Z,41
2019-03-11T05:35:23.437Z,47
2019-03-11T05:38:51.410Z,54
2019-03-11T05:42:19.303Z,78
2019-03-11T05:45:47.185Z,60
2019-03-11T05:49:15.099Z,119
2019-03-11T05:52:43.045Z,218
2019-03-11T05:56:10.899Z,258
2019-03-11T05:59:38.775Z,320
2019-03-11T06:03:06.688Z,379
2019-03-11T06:06:34.567Z,378
2019-03-11T06:10:02.475Z,324
2019-03-11T06:13:36.099Z,441
2019-03-11T06:17:02.238Z,595
2019-03-11T06:20:30.116Z,530
2019-03-11T06:23:59.041Z,559
2019-03-11T06:27:27.921Z,616
2019-03-11T06:30:55.797Z,577
2019-03-11T06:34:23.706Z,704
2019-03-11T06:37:51.697Z,839
2019-03-11T06:41:19.573Z,905
2019-03-11T06:44:47.465Z,1025
2019-03-11T06:48:15.378Z,1168
2019-03-11T06:51:43.252Z,1362
2019-03-11T06:55:11.158Z,1559
2019-03-11T06:58:39.058Z,1732
2019-03-11T07:02:06.938Z,1859
2019-03-11T07:05:34.840Z,2026
2019-03-11T07:09:02.734Z,2190
2019-03-11T07:12:30.620Z,2398
2019-03-11T07:15:58.538Z,2634
2019-03-11T07:19:26.439Z,2835
2019-03-11T07:22:54.322Z,2912
2019-03-11T07:26:22.215Z,3017
2019-03-11T07:29:50.125Z,3295
2019-03-11T07:33:18.007Z,3686
2019-03-11T07:36:45.899Z,3978
2019-03-11T07:40:13.812Z,4243
2019-03-11T07:43:43.824Z,4272
2019-03-11T07:47:11.718Z,4237
2019-03-11T07:50:39.635Z,3991
2019-03-11T07:54:07.554Z,4106
2019-03-11T07:57:35.449Z,3886
2019-03-11T08:01:03.360Z,4467
2019-03-11T08:04:31.287Z,4937
2019-03-11T08:07:59.217Z,5245
2019-03-11T08:11:27.072Z,5539
2019-03-11T08:14:55.013Z,5600
2019-03-11T08:18:34.117Z,5469
2019-03-11T08:21:54.800Z,5391
2019-03-11T08:25:22.734Z,5264
2019-03-11T08:28:50.629Z,5471
2019-03-11T08:32:18.547Z,5592
2019-03-11T08:35:46.465Z,5819
2019-03-11T08:39:14.345Z,6488
2019-03-11T08:42:42.243Z,6592
2019-03-11T08:46:10.160Z,6605
2019-03-11T08:49:38.050Z,6789
2019-03-11T08:53:05.943Z,7251
2019-03-11T08:56:33.853Z,8006
2019-03-11T09:00:01.885Z,7057
2019-03-11T09:03:29.764Z,7208
2019-03-11T09:06:57.667Z,8990
2019-03-11T09:10:25.567Z,9836
2019-03-11T09:13:53.445Z,10863
2019-03-11T09:17:21.343Z,10900
2019-03-11T09:20:49.248Z,8795
2019-03-11T09:24:20.127Z,9019
2019-03-11T09:27:50.549Z,8408
2019-03-11T09:31:17.882Z,8251
2019-03-11T09:34:45.766Z,8939
2019-03-11T09:38:13.678Z,9282
2019-03-11T09:41:41.561Z,9678
2019-03-11T09:45:09.454Z,8913
2019-03-11T09:48:37.352Z,9582
2019-03-11T09:52:06.242Z,9342
2019-03-11T09:55:34.138Z,8091
2019-03-11T09:59:02.029Z,10158
2019-03-11T10:02:29.924Z,11315
2019-03-11T10:05:57.824Z,9252
2019-03-11T10:09:26.686Z,8910
2019-03-11T10:12:54.615Z,10127
2019-03-11T10:16:22.518Z,9141
2019-03-11T10:19:50.397Z,9543
2019-03-11T10:23:18.314Z,10452
2019-03-11T10:26:48.174Z,10686
2019-03-11T10:30:16.053Z,9082
2019-03-11T10:33:44.005Z,5987
2019-03-11T10:37:11.900Z,4542
2019-03-11T10:40:39.787Z,4316
2019-03-11T10:44:07.679Z,5666
2019-03-11T10:47:35.577Z,7295
2019-03-11T10:51:03.549Z,8769
2019-03-11T10:54:31.351Z,10443
2019-03-11T10:57:59.259Z,11467
2019-03-11T11:01:27.161Z,12399
2019-03-11T11:04:55.047Z,12993
2019-03-11T11:08:22.940Z,12647
2019-03-11T11:11:51.841Z,12407
2019-03-11T11:15:19.718Z,11963
2019-03-11T11:18:47.615Z,10646
2019-03-11T11:22:16.520Z,6945
2019-03-11T11:25:45.408Z,4606
2019-03-11T11:29:13.292Z,4757
2019-03-11T11:32:41.197Z,5060
2019-03-11T11:36:09.108Z,3959
2019-03-11T11:39:37.985Z,2880
2019-03-11T11:43:05.892Z,2757
2019-03-11T11:46:33.783Z,2890
2019-03-11T11:50:01.662Z,3901
2019-03-11T11:53:29.557Z,5211
2019-03-11T11:56:57.461Z,7270
2019-03-11T12:00:25.352Z,11684
2019-03-11T12:03:54.233Z,11839
2019-03-11T12:07:22.136Z,12656
2019-03-11T12:10:50.027Z,12194
2019-03-11T12:14:17.912Z,6254
2019-03-11T12:17:45.840Z,5636
2019-03-11T12:21:13.740Z,5996
2019-03-11T12:24:42.603Z,6329
2019-03-11T12:28:11.504Z,8525
2019-03-11T12:31:39.404Z,10752
2019-03-11T12:35:07.499Z,16610
2019-03-11T12:38:35.377Z,14600
2019-03-11T12:42:03.277Z,10391
2019-03-11T12:45:31.170Z,12978
2019-03-11T12:48:59.059Z,22712
2019-03-11T12:52:26.958Z,11057
2019-03-11T12:55:54.852Z,18760
2019-03-11T12:59:22.732Z,65535
2019-03-11T13:02:50.632Z,23472
2019-03-11T13:06:18.539Z,46448
2019-03-11T13:09:46.417Z,45672
2019-03-11T13:13:14.310Z,32088
2019-03-11T13:16:44.192Z,65535
2019-03-11T13:20:12.385Z,51520
2019-03-11T13:23:41.721Z,11070
2019-03-11T13:27:10.373Z,6392
2019-03-11T13:30:38.370Z,7130
2019-03-11T13:34:06.448Z,15679
2019-03-11T13:37:34.515Z,33976
2019-03-11T13:41:02.536Z,43704
2019-03-11T13:44:30.488Z,11182
2019-03-11T13:47:59.044Z,8743
2019-03-11T13:51:26.271Z,5311
2019-03-11T13:54:54.173Z,3017
2019-03-11T13:58:22.076Z,1946
2019-03-11T14:01:49.988Z,1595
2019-03-11T14:05:17.930Z,2693
2019-03-11T14:08:46.804Z,2743
2019-03-11T14:12:14.678Z,2617
2019-03-11T14:15:42.579Z,2388
2019-03-11T14:19:10.490Z,2723
2019-03-11T14:22:38.366Z,3207
2019-03-11T14:26:06.271Z,3722
2019-03-11T14:29:34.175Z,3923
2019-03-11T14:33:02.078Z,3289
2019-03-11T14:36:31.946Z,3821
2019-03-11T14:39:59.849Z,5252
2019-03-11T14:43:28.491Z,5667
2019-03-11T14:46:55.647Z,6813
2019-03-11T14:50:23.557Z,6809
2019-03-11T14:53:51.467Z,7223
2019-03-11T14:57:19.406Z,8038
2019-03-11T15:00:47.354Z,8949
2019-03-11T15:04:15.366Z,5892
2019-03-11T15:07:43.292Z,4931
2019-03-11T15:11:11.238Z,6209
2019-03-11T15:14:39.216Z,10017
2019-03-11T15:18:07.239Z,5122
2019-03-11T15:21:35.154Z,5373
2019-03-11T15:25:03.084Z,5285
2019-03-11T15:28:31.056Z,4378
2019-03-11T15:32:00.005Z,2797
2019-03-11T15:35:27.977Z,1983
2019-03-11T15:38:55.893Z,2204
2019-03-11T15:42:24.868Z,1460
2019-03-11T15:45:52.837Z,2303
2019-03-11T15:49:20.808Z,5579
2019-03-11T15:52:48.825Z,3502
2019-03-11T15:56:17.880Z,3030
2019-03-11T15:59:45.878Z,2858
2019-03-11T16:03:13.826Z,2664
2019-03-11T16:06:41.957Z,2433
2019-03-11T16:10:16.950Z,2143
2019-03-11T16:13:43.144Z,1894
2019-03-11T16:17:11.358Z,1889
2019-03-11T16:20:39.615Z,1447
2019-03-11T16:24:08.817Z,1368
2019-03-11T16:27:36.921Z,1204
2019-03-11T16:31:05.115Z,1267
2019-03-11T16:34:33.098Z,1314
2019-03-11T16:38:01.070Z,976
2019-03-11T16:41:28.952Z,856
2019-03-11T16:44:56.857Z,639
2019-03-11T16:48:25.601Z,550
2019-03-11T16:51:53.697Z,415
2019-03-11T16:55:21.599Z,318
2019-03-11T16:58:49.502Z,241
2019-03-11T17:02:17.416Z,178
2019-03-11T17:05:46.296Z,128
2019-03-11T17:09:14.200Z,89
2019-03-11T17:12:43.106Z,59
2019-03-11T17:16:10.814Z,36
2019-03-11T17:19:38.722Z,22
2019-03-11T17:23:06.768Z,13
2019-03-11T17:26:34.658Z,8
2019-03-11T17:30:03.569Z,4
2019-03-11T17:33:31.563Z,2
2019-03-11T17:36:59.474Z,1
2019-03-11T17:40:27.374Z,1
2019-03-11T17:43:55.375Z,0
2019-03-11T17:47:23.265Z,0
2019-03-11T17:50:51.218Z,0
2019-03-11T17:54:19.125Z,0
2019-03-11T17:57:48.023Z,0
2019-03-11T18:01:15.928Z,0
2019-03-11T18:04:43.955Z,0
2019-03-11T18:08:11.917Z,0
2019-03-11T18:11:40.872Z,0
2019-03-11T18:15:08.794Z,0
2019-03-11T18:18:37.952Z,0
2019-03-11T18:22:05.977Z,0
2019-03-11T18:25:33.984Z,0
2019-03-11T18:29:01.882Z,0
2019-03-11T18:32:30.857Z,0
2019-03-11T18:35:58.808Z,0
2019-03-11T18:39:26.808Z,0
2019-03-11T18:42:54.758Z,0
2019-03-11T18:46:22.638Z,0
2019-03-11T18:49:50.679Z,0
2019-03-11T18:53:19.652Z,0
2019-03-11T18:56:47.533Z,0
2019-03-11T19:00:15.504Z,0
2019-03-11T19:03:43.454Z,0
2019-03-11T19:07:11.436Z,0
2019-03-11T19:10:39.387Z,0
2019-03-11T19:14:07.333Z,0
2019-03-11T19:17:35.240Z,0
2019-03-11T19:21:03.175Z,0
2019-03-11T19:24:31.120Z,0
2019-03-11T19:27:59.057Z,0
2019-03-11T19:31:27.165Z,0
2019-03-11T19:34:56.200Z,0
2019-03-11T19:38:24.056Z,0
2019-03-11T19:41:52.929Z,0
2019-03-11T19:45:20.859Z,0
2019-03-11T19:48:48.822Z,0
2019-03-11T19:52:16.754Z,0
2019-03-11T19:55:47.490Z,0
2019-03-11T19:59:15.291Z,0
2019-03-11T20:02:43.270Z,0
2019-03-11T20:06:11.210Z,0
2019-03-11T20:09:39.190Z,0
2019-03-11T20:13:07.107Z,0
2019-03-11T20:16:35.113Z,0
2019-03-11T20:20:03.099Z,0
2019-03-11T20:23:30.926Z,0
2019-03-11T20:26:58.865Z,0
2019-03-11T20:30:26.741Z,0
2019-03-11T20:33:56.676Z,0
2019-03-11T20:37:24.598Z,0
2019-03-11T20:40:52.633Z,0
2019-03-11T20:44:20.711Z,0
2019-03-11T20:47:48.531Z,0
2019-03-11T20:51:16.399Z,0
2019-03-11T20:54:44.267Z,0
2019-03-11T20:58:13.183Z,0
2019-03-11T21:01:42.049Z,0
2019-03-11T21:05:10.023Z,0
2019-03-11T21:08:38.647Z,0
2019-03-11T21:12:06.514Z,0
2019-03-11T21:15:35.521Z,0
2019-03-11T21:19:03.558Z,0
2019-03-11T21:22:31.481Z,0
2019-03-11T21:26:00.475Z,0
2019-03-11T21:29:28.364Z,0
2019-03-11T21:32:56.310Z,0
2019-03-11T21:36:24.239Z,0
2019-03-11T21:39:52.069Z,0
2019-03-11T21:43:19.946Z,0
2019-03-11T21:46:48.848Z,0
2019-03-11T21:50:16.721Z,0
2019-03-11T21:53:44.707Z,0
2019-03-11T21:57:12.497Z,0
2019-03-11T22:00:40.385Z,0
2019-03-11T22:04:08.279Z,0
2019-03-11T22:07:36.161Z,0
2019-03-11T22:11:04.072Z,0
2019-03-11T22:14:31.964Z,0
2019-03-11T22:17:59.836Z,0
2019-03-11T22:21:27.732Z,0
2019-03-11T22:24:55.642Z,0
2019-03-11T22:28:23.536Z,0
2019-03-11T22:31:51.418Z,0
2019-03-11T22:35:19.322Z,0
2019-03-11T22:38:47.224Z,0
2019-03-11T22:42:15.105Z,0
2019-03-11T22:45:43.003Z,0
2019-03-11T22:49:10.905Z,0
2019-03-11T22:52:38.804Z,0
2019-03-11T22:56:06.682Z,0
2019-03-11T22:59:34.581Z,0
